WetterOnline ( https://www.wetteronline.de )

Wetter aktuell Kopenhagen

Aktuelles Wetter: Kopenhagen/Kastrup (5m)

6-stündlich | Neueste Meldungen
Ortszeit Temperatur Wetter
Do, 02.02. 13:00 4.0° C leicht bewölkt
Do, 02.02. 7:00 1.5° C bedeckt
Do, 02.02. 1:00 4.1° C bedeckt
Mi, 01.02. 19:00 5.3° C wolkig
Mi, 01.02. 13:00 5.7° C leicht bewölkt
Mi, 01.02. 7:00 4.0° C leichte Schauer
Mi, 01.02. 1:00 4.3° C wolkig
Di, 31.01. 19:00 3.8° C leicht bewölkt
Ortszeit Temperatur Wetter
Do, 02.02. 18:00 1.3° C wolkenlos
Do, 02.02. 17:00 1.9° C wolkenlos
Do, 02.02. 16:00 3.0° C wolkenlos
Do, 02.02. 15:00 3.8° C wolkenlos
Do, 02.02. 14:00 4.0° C wolkenlos
Do, 02.02. 13:00 4.0° C leicht bewölkt
Ortszeit Relative Feuchte Sichtweite
Do, 02.02. 13:00 64% 60 km
Do, 02.02. 7:00 77% >70 km
Do, 02.02. 1:00 84% >70 km
Mi, 01.02. 19:00 79% 18 km
Mi, 01.02. 13:00 72% 35 km
Mi, 01.02. 7:00 82% 50 km
Mi, 01.02. 1:00 78% 30 km
Di, 31.01. 19:00 81% 50 km
Ortszeit Relative Feuchte Sichtweite
Do, 02.02. 18:00 76% 55 km
Do, 02.02. 17:00 71% 55 km
Do, 02.02. 16:00 66% >70 km
Do, 02.02. 15:00 61% 65 km
Do, 02.02. 14:00 59% 65 km
Do, 02.02. 13:00 64% 60 km
Ortszeit Niederschlagsmenge Niederschlagsart
Do, 02.02. 13:00 0.0 l/m2 in 3 Std. -
Do, 02.02. 7:00 0.0 l/m2 in 3 Std. Schauer
Do, 02.02. 1:00 0.2 l/m2 in 3 Std. -
Mi, 01.02. 19:00 2 l/m2 in 12 Std. -
Mi, 01.02. 13:00 0.2 l/m2 in 6 Std. -
Mi, 01.02. 7:00 0.3 l/m2 in 12 Std. Schauer
Mi, 01.02. 1:00 0.1 l/m2 in 3 Std. Schauer
Di, 31.01. 19:00 0.7 l/m2 in 3 Std. -
Ortszeit Niederschlagsmenge Niederschlagsart
Do, 02.02. 18:00 0.0 l/m2 in 1 Std. -
Do, 02.02. 17:00 0.0 l/m2 in 1 Std. -
Do, 02.02. 16:00 0.0 l/m2 in 1 Std. -
Do, 02.02. 15:00 0.0 l/m2 in 1 Std. -
Do, 02.02. 14:00 0.0 l/m2 in 1 Std. -
Do, 02.02. 13:00 0.0 l/m2 in 1 Std. -
Ortszeit Stärke Spitze Richtung
km/h Bft. km/h Grad Sektor
Do, 02.02. 13:00 22 4 - 310° NW
Do, 02.02. 7:00 22 4 - 330° NW
Do, 02.02. 1:00 35 5 - 330° NW
Mi, 01.02. 19:00 26 4 61 240° SW
Mi, 01.02. 13:00 33 5 50 260° W
Mi, 01.02. 7:00 31 5 63 260° W
Mi, 01.02. 1:00 41 6 - 270° W
Di, 31.01. 19:00 31 5 - 270° W
Ortszeit Stärke Spitze Richtung
km/h Bft. km/h Grad Sektor
Do, 02.02. 18:00 7 2 - 310° NW
Do, 02.02. 17:00 13 3 - 310° NW
Do, 02.02. 16:00 15 3 - 300° NW
Do, 02.02. 15:00 13 3 - 310° NW
Do, 02.02. 14:00 17 3 - 330° NW
Do, 02.02. 13:00 22 4 - 310° NW
Ortszeit Untergrenze Bedeckung Gattung
total tief tief mittel hoch
Do, 02.02. 13:00 810 m 2/8 2/8 - - -
Do, 02.02. 7:00 720 m 8/8 8/8 - - -
Do, 02.02. 1:00 390 m 8/8 8/8 - - -
Mi, 01.02. 19:00 930 m 6/8 6/8 - - -
Mi, 01.02. 13:00 750 m 4/8 4/8 - - -
Mi, 01.02. 7:00 630 m 7/8 7/8 - - -
Mi, 01.02. 1:00 570 m 6/8 6/8 - - -
Di, 31.01. 19:00 570 m 4/8 4/8 - - -
Ortszeit Bedeckungsgrad in Achtel und Wolkenuntergrenze
Do, 02.02. 18:00 keine Wolken
Do, 02.02. 17:00 keine Wolken
Do, 02.02. 16:00 keine Wolken
Do, 02.02. 15:00 keine Wolken
Do, 02.02. 14:00 keine Wolken
Do, 02.02. 13:00 2(810m)
Ortszeit Luftdruck NN (hPa) Tendenz (hPa in 3 Std.)
Do, 02.02. 13:00 1017 + 1,5
Do, 02.02. 7:00 1010 + 3,0
Do, 02.02. 1:00 1001 + 4,9
Mi, 01.02. 19:00 998 - 0,5
Mi, 01.02. 13:00 999 - 0,9
Mi, 01.02. 7:00 1000 - 0,2
Mi, 01.02. 1:00 1001 - 0,2
Di, 31.01. 19:00 1000 + 0,9
Ortszeit Luftdruck NN (hPa) Tendenz (hPa in 3 Std.)
Do, 02.02. 18:00 1020 + 1,4
Do, 02.02. 17:00 1020 + 1,9
Do, 02.02. 16:00 1019 + 2,2
Do, 02.02. 15:00 1018 + 1,2
Do, 02.02. 14:00 1017 + 1,0
Do, 02.02. 13:00 1017 + 1,5
Ortszeit Schneehöhe (cm)
Do, 02.02. 13:00 -
Do, 02.02. 7:00 -
Do, 02.02. 1:00 -
Mi, 01.02. 19:00 -
Mi, 01.02. 13:00 -
Mi, 01.02. 7:00 -
Mi, 01.02. 1:00 -
Di, 31.01. 19:00 -
Ortszeit Schneehöhe (cm)
Do, 02.02. 18:00 -
Do, 02.02. 17:00 -
Do, 02.02. 16:00 -
Do, 02.02. 15:00 -
Do, 02.02. 14:00 -
Do, 02.02. 13:00 -
Link zu dieser Seite / Seite empfehlen

Das Wetter in ...